Time;durP1;ratioP1;P1;durP2;ratioP2;P2;SDS_P1;SDS_P2;PMS_P1;PMS_P2;Temp;Humidity;BMP_temperature;BMP_pressure;BME280_temperature;BME280_humidity;BME280_pressure;Samples;Min_cycle;Max_cycle;Signal;HPM_P1;HPM_P2
2022/07/15 00:00:23;;;;;;;5.65;1.10;;;15.40;99.90;;;;;;4958693;28;20058;-85
2022/07/15 00:03:12;;;;;;;8.65;1.20;;;15.40;99.90;;;;;;4972763;28;20418;-85
2022/07/15 00:05:58;;;;;;;8.45;2.08;;;15.40;99.90;;;;;;4974859;28;20055;-85
2022/07/15 00:08:45;;;;;;;11.27;2.60;;;15.40;99.90;;;;;;4973057;28;20055;-86
2022/07/15 00:11:31;;;;;;;6.50;1.10;;;15.40;99.90;;;;;;4977376;28;20057;-84
2022/07/15 00:14:17;;;;;;;3.78;0.90;;;15.30;99.90;;;;;;4976964;28;20075;-85
2022/07/15 00:17:06;;;;;;;7.28;1.80;;;15.30;99.90;;;;;;4982184;28;20929;-84
2022/07/15 00:19:52;;;;;;;7.57;1.00;;;15.40;99.90;;;;;;4977934;28;20051;-86
2022/07/15 00:22:40;;;;;;;8.40;0.98;;;15.40;99.90;;;;;;4979253;28;20094;-87
2022/07/15 00:25:26;;;;;;;9.25;1.33;;;15.30;99.90;;;;;;4984626;28;20047;-85
2022/07/15 00:28:12;;;;;;;4.15;1.02;;;15.30;99.90;;;;;;4975815;28;20145;-85
2022/07/15 00:30:59;;;;;;;8.95;1.83;;;15.30;99.90;;;;;;4975097;28;20391;-85
2022/07/15 00:33:45;;;;;;;8.98;1.40;;;15.30;99.90;;;;;;4962271;28;20061;-86
2022/07/15 00:36:31;;;;;;;6.53;0.95;;;15.20;99.90;;;;;;4977655;28;20085;-90
2022/07/15 00:39:17;;;;;;;5.47;0.60;;;15.30;99.90;;;;;;4976745;28;20155;-90
2022/07/15 00:42:04;;;;;;;4.55;0.75;;;15.20;99.90;;;;;;4975248;28;20055;-86
2022/07/15 00:44:50;;;;;;;2.15;0.50;;;15.20;99.90;;;;;;4976224;28;20590;-85
2022/07/15 00:47:36;;;;;;;3.97;0.70;;;15.10;99.90;;;;;;4982318;28;20055;-79
2022/07/15 00:50:25;;;;;;;3.08;0.60;;;15.10;99.90;;;;;;4979860;28;20086;-86
2022/07/15 00:53:21;;;;;;;4.60;0.73;;;15.00;99.90;;;;;;4975734;28;20047;-87
2022/07/15 00:56:09;;;;;;;4.82;0.60;;;15.00;99.90;;;;;;4975918;28;20047;-87
2022/07/15 00:58:57;;;;;;;2.70;0.30;;;15.00;99.90;;;;;;4974506;28;20051;-86
2022/07/15 01:01:45;;;;;;;3.15;0.40;;;15.00;99.90;;;;;;4974734;28;20529;-86
2022/07/15 01:04:33;;;;;;;4.30;1.10;;;15.00;99.90;;;;;;4975145;28;20678;-86
2022/07/15 01:07:19;;;;;;;5.63;1.17;;;15.00;99.90;;;;;;4979761;28;20521;-84
2022/07/15 01:10:06;;;;;;;4.50;0.70;;;15.00;99.90;;;;;;4974485;28;20042;-86
2022/07/15 01:12:53;;;;;;;3.92;0.40;;;14.90;99.90;;;;;;4979055;28;20081;-85
2022/07/15 01:15:39;;;;;;;6.45;0.85;;;14.90;99.90;;;;;;4977960;28;20417;-88
2022/07/15 01:18:25;;;;;;;3.38;0.55;;;14.90;99.90;;;;;;5010272;28;20387;-86
2022/07/15 01:21:11;;;;;;;3.60;0.52;;;14.90;99.90;;;;;;4995070;28;20065;-86
2022/07/15 01:23:58;;;;;;;3.20;0.50;;;14.80;99.90;;;;;;4997176;28;20042;-85
2022/07/15 01:26:44;;;;;;;7.05;0.70;;;14.80;99.90;;;;;;4994975;28;20050;-85
2022/07/15 01:29:30;;;;;;;4.65;0.80;;;14.90;99.90;;;;;;4994380;28;20046;-85
2022/07/15 01:32:17;;;;;;;5.28;0.88;;;14.80;99.90;;;;;;5000603;28;20075;-86
2022/07/15 01:35:03;;;;;;;3.30;0.80;;;14.80;99.90;;;;;;4993812;28;20418;-87
2022/07/15 01:37:50;;;;;;;8.20;0.60;;;14.90;99.90;;;;;;4993406;28;20418;-86
2022/07/15 01:40:36;;;;;;;3.90;0.77;;;14.80;99.90;;;;;;4994037;28;20418;-86
2022/07/15 01:43:23;;;;;;;7.00;0.60;;;14.90;99.90;;;;;;4995807;28;20405;-86
2022/07/15 01:46:09;;;;;;;3.88;0.52;;;14.90;99.90;;;;;;4995180;28;20050;-86
2022/07/15 01:52:01;;;;;;;4.28;0.45;;;14.90;99.90;;;;;;5008949;28;20111;-87
2022/07/15 01:54:48;;;;;;;6.50;0.60;;;14.90;99.90;;;;;;4977389;28;20094;-86
2022/07/15 01:57:34;;;;;;;4.53;0.57;;;14.90;99.90;;;;;;4982884;28;20050;-86
2022/07/15 02:00:20;;;;;;;6.43;0.73;;;14.90;99.90;;;;;;4996516;28;20065;-87
2022/07/15 02:03:07;;;;;;;5.93;1.55;;;14.90;99.90;;;;;;4993438;28;20050;-86
2022/07/15 02:05:53;;;;;;;7.07;0.80;;;14.90;99.90;;;;;;4995172;28;20101;-88
2022/07/15 02:08:40;;;;;;;3.92;0.82;;;14.90;99.90;;;;;;4973239;28;20062;-86
2022/07/15 02:11:26;;;;;;;2.97;0.30;;;14.90;99.90;;;;;;4975911;28;20086;-86
2022/07/15 02:14:12;;;;;;;4.13;0.35;;;14.90;99.90;;;;;;4958661;28;20057;-87
2022/07/15 02:16:58;;;;;;;4.57;0.77;;;14.90;99.90;;;;;;4975850;28;20051;-86
2022/07/15 02:19:44;;;;;;;5.22;0.77;;;14.80;99.90;;;;;;4982873;28;20051;-85
2022/07/15 02:22:33;;;;;;;4.30;0.98;;;14.80;99.90;;;;;;4975835;28;20494;-86
2022/07/15 02:25:20;;;;;;;3.45;0.57;;;14.70;99.90;;;;;;4988376;28;20043;-86
2022/07/15 02:28:07;;;;;;;2.97;0.63;;;14.70;99.90;;;;;;4979844;28;20073;-87
2022/07/15 02:30:53;;;;;;;5.55;0.85;;;14.70;99.90;;;;;;4973374;28;20094;-86
2022/07/15 02:33:41;;;;;;;3.40;0.50;;;14.80;99.90;;;;;;4959588;28;20098;-86
2022/07/15 02:36:28;;;;;;;4.45;0.57;;;14.80;99.90;;;;;;4974404;28;20114;-85
2022/07/15 02:39:14;;;;;;;8.05;0.73;;;14.80;99.90;;;;;;4959283;28;20050;-86
2022/07/15 02:42:00;;;;;;;11.38;1.05;;;14.90;99.90;;;;;;4984730;28;20101;-84
2022/07/15 02:44:47;;;;;;;5.03;1.17;;;14.90;99.90;;;;;;4975201;28;20142;-84
2022/07/15 02:47:34;;;;;;;4.68;0.75;;;14.90;99.90;;;;;;4974915;28;20068;-86
2022/07/15 02:50:22;;;;;;;4.20;0.82;;;15.00;99.90;;;;;;4987929;28;20046;-87
2022/07/15 02:53:08;;;;;;;3.45;0.55;;;15.00;99.90;;;;;;4955667;28;20062;-84
2022/07/15 02:55:58;;;;;;;6.28;0.80;;;15.10;99.90;;;;;;4974420;28;20398;-87
2022/07/15 02:58:44;;;;;;;4.15;0.82;;;15.10;99.90;;;;;;4973686;28;20082;-85
2022/07/15 03:01:31;;;;;;;6.07;1.00;;;15.20;99.90;;;;;;4974728;28;20443;-87
2022/07/15 03:04:17;;;;;;;7.90;1.05;;;15.20;99.90;;;;;;4963004;28;20054;-86
2022/07/15 03:07:03;;;;;;;11.52;1.10;;;15.20;99.90;;;;;;4975945;28;20058;-87
2022/07/15 03:09:49;;;;;;;3.83;0.80;;;15.20;99.90;;;;;;5009401;28;20497;-87
2022/07/15 03:12:35;;;;;;;3.97;0.50;;;15.20;99.90;;;;;;5005816;28;20156;-85
2022/07/15 03:15:21;;;;;;;6.75;0.82;;;15.20;99.90;;;;;;4993465;28;20042;-86
2022/07/15 03:18:08;;;;;;;3.53;0.50;;;15.20;99.90;;;;;;4992824;28;20053;-85
2022/07/15 03:20:54;;;;;;;3.80;0.70;;;15.20;99.90;;;;;;4992441;28;20405;-87
2022/07/15 03:23:40;;;;;;;3.85;0.57;;;15.20;99.90;;;;;;4992109;28;20046;-87
2022/07/15 03:26:26;;;;;;;3.20;0.63;;;15.20;99.90;;;;;;4992117;28;20498;-86
2022/07/15 03:29:15;;;;;;;6.85;0.63;;;15.20;99.90;;;;;;4987117;28;20053;-87
2022/07/15 03:32:02;;;;;;;4.15;0.57;;;15.30;99.90;;;;;;4979824;28;20127;-86
2022/07/15 03:34:48;;;;;;;7.28;0.77;;;15.30;99.90;;;;;;4975972;28;20051;-85
2022/07/15 03:37:34;;;;;;;5.68;0.90;;;15.30;99.90;;;;;;5004587;28;20046;-86
2022/07/15 03:40:21;;;;;;;3.13;0.60;;;15.30;99.90;;;;;;4993192;28;20054;-86
2022/07/15 03:43:07;;;;;;;4.13;0.75;;;15.30;99.90;;;;;;4977496;28;20144;-85
2022/07/15 03:45:53;;;;;;;2.78;0.57;;;15.30;99.90;;;;;;4977867;28;20133;-86
2022/07/15 03:48:40;;;;;;;9.70;0.77;;;15.30;99.90;;;;;;4996649;28;20050;-86
2022/07/15 03:51:30;;;;;;;4.43;0.80;;;15.30;99.90;;;;;;4967476;28;20145;-86
2022/07/15 03:54:16;;;;;;;5.13;0.60;;;15.30;99.90;;;;;;4984515;28;20084;-87
2022/07/15 03:57:03;;;;;;;4.13;0.70;;;15.40;99.90;;;;;;5000027;28;20050;-87
2022/07/15 03:59:49;;;;;;;4.05;0.88;;;15.40;99.90;;;;;;5008115;28;20065;-86
2022/07/15 04:02:35;;;;;;;6.00;1.15;;;15.40;99.90;;;;;;5000129;28;20046;-88
2022/07/15 04:05:22;;;;;;;3.33;0.70;;;15.40;99.90;;;;;;4994936;28;20073;-87
2022/07/15 04:08:08;;;;;;;7.00;1.40;;;15.40;99.90;;;;;;4962031;28;20066;-86
2022/07/15 04:10:56;;;;;;;6.97;0.85;;;15.40;99.90;;;;;;4996056;28;20057;-86
2022/07/15 04:13:42;;;;;;;3.90;0.85;;;15.40;99.90;;;;;;4991063;28;20096;-85
2022/07/15 04:16:29;;;;;;;6.20;0.80;;;15.40;99.90;;;;;;4960957;28;20057;-86
2022/07/15 04:19:15;;;;;;;4.50;1.00;;;15.30;99.90;;;;;;4992218;28;20125;-86
2022/07/15 04:22:02;;;;;;;5.30;0.95;;;15.30;99.90;;;;;;4998407;28;20050;-86
2022/07/15 04:24:48;;;;;;;3.65;0.70;;;15.30;99.90;;;;;;4970435;28;20058;-86
2022/07/15 04:27:34;;;;;;;4.47;1.00;;;15.30;99.90;;;;;;4975024;28;20050;-87
2022/07/15 04:30:21;;;;;;;7.80;1.92;;;15.30;99.90;;;;;;4978555;28;20061;-86
2022/07/15 04:33:07;;;;;;;2.97;0.68;;;15.30;99.90;;;;;;4992986;28;20043;-86
2022/07/15 04:35:54;;;;;;;5.47;0.70;;;15.30;99.90;;;;;;4975279;28;20411;-86
2022/07/15 04:38:40;;;;;;;3.33;0.68;;;15.30;99.90;;;;;;4993659;28;20052;-86
2022/07/15 04:41:29;;;;;;;2.30;0.40;;;15.40;99.90;;;;;;4969466;28;20054;-88
2022/07/15 04:44:16;;;;;;;6.25;0.75;;;15.50;99.90;;;;;;4972851;28;20057;-86
2022/07/15 04:47:04;;;;;;;3.80;0.55;;;15.50;99.90;;;;;;4975993;28;20046;-86
2022/07/15 04:52:56;;;;;;;5.47;0.68;;;15.60;99.90;;;;;;4976249;28;20095;-86
2022/07/15 04:55:42;;;;;;;3.17;0.50;;;15.70;99.90;;;;;;4962081;28;20153;-86
2022/07/15 04:58:28;;;;;;;8.02;1.13;;;15.80;99.90;;;;;;4973840;28;20418;-87
2022/07/15 05:01:14;;;;;;;2.85;0.50;;;15.80;99.90;;;;;;4975264;28;20100;-87
2022/07/15 05:04:01;;;;;;;4.70;0.55;;;15.80;99.90;;;;;;4979535;28;20053;-86
2022/07/15 05:06:50;;;;;;;3.67;0.60;;;15.80;99.90;;;;;;5006620;28;20133;-88
2022/07/15 05:09:37;;;;;;;2.22;0.55;;;15.80;99.90;;;;;;4962464;28;20046;-87
2022/07/15 05:12:23;;;;;;;2.08;0.30;;;15.80;99.90;;;;;;4977277;28;20137;-86
2022/07/15 05:15:10;;;;;;;4.93;0.60;;;15.80;99.90;;;;;;4975485;28;20059;-85
2022/07/15 05:17:56;;;;;;;3.22;0.80;;;15.80;99.90;;;;;;4975756;28;20069;-84
2022/07/15 05:20:42;;;;;;;3.78;0.60;;;15.90;99.90;;;;;;4979050;28;20054;-86
2022/07/15 05:23:29;;;;;;;5.25;0.60;;;15.90;99.90;;;;;;4976378;28;20054;-84
2022/07/15 05:26:15;;;;;;;2.38;0.65;;;15.90;99.90;;;;;;4975436;28;20051;-84
2022/07/15 05:29:01;;;;;;;5.85;0.77;;;15.90;99.90;;;;;;4977935;28;20090;-86
2022/07/15 05:31:51;;;;;;;8.73;0.80;;;15.90;99.90;;;;;;4980861;28;20113;-85
2022/07/15 05:34:37;;;;;;;4.97;0.50;;;15.80;99.90;;;;;;4957196;28;20061;-85
2022/07/15 05:37:23;;;;;;;3.47;0.50;;;15.70;99.90;;;;;;4975923;28;20541;-86
2022/07/15 05:40:10;;;;;;;3.38;0.50;;;15.60;99.90;;;;;;4976758;28;20138;-85
2022/07/15 05:42:56;;;;;;;1.25;0.25;;;15.60;99.90;;;;;;4974275;28;20089;-85
2022/07/15 05:45:42;;;;;;;2.33;0.90;;;15.60;99.90;;;;;;4977708;28;20058;-86
2022/07/15 05:48:28;;;;;;;2.33;0.50;;;15.60;99.90;;;;;;4978944;28;20062;-87
2022/07/15 05:51:15;;;;;;;7.07;0.63;;;15.70;99.90;;;;;;4969926;28;20035;-86
2022/07/15 05:54:02;;;;;;;5.13;0.43;;;15.70;99.90;;;;;;4975519;28;20481;-85
2022/07/15 05:56:48;;;;;;;2.45;0.52;;;15.60;99.90;;;;;;4985003;28;20046;-85
2022/07/15 05:59:34;;;;;;;3.72;0.60;;;15.60;99.90;;;;;;4976525;28;20058;-86
2022/07/15 06:02:20;;;;;;;2.63;0.47;;;15.70;99.90;;;;;;4973038;28;20046;-84
2022/07/15 06:05:10;;;;;;;4.70;0.68;;;15.60;99.90;;;;;;4975746;28;20116;-84
2022/07/15 06:07:57;;;;;;;3.90;0.80;;;15.70;99.90;;;;;;4979026;28;20093;-85
2022/07/15 06:10:44;;;;;;;2.90;0.50;;;15.70;99.90;;;;;;4995679;28;20046;-87
2022/07/15 06:13:30;;;;;;;6.97;0.75;;;15.70;99.90;;;;;;4977057;28;20126;-88
2022/07/15 06:16:16;;;;;;;7.18;0.60;;;15.70;99.90;;;;;;4963792;28;20552;-86
2022/07/15 06:19:03;;;;;;;3.83;0.63;;;15.70;99.90;;;;;;4985288;28;20145;-86
2022/07/15 06:21:49;;;;;;;2.72;0.45;;;15.70;99.90;;;;;;4981343;28;20069;-87
2022/07/15 06:24:35;;;;;;;2.65;0.80;;;16.10;99.90;;;;;;4978251;28;20050;-85
2022/07/15 06:27:22;;;;;;;2.70;0.47;;;16.20;99.90;;;;;;4994400;28;20132;-84
2022/07/15 06:30:09;;;;;;;1.80;0.30;;;16.30;99.90;;;;;;4977990;28;20058;-82
2022/07/15 06:32:55;;;;;;;7.32;0.55;;;16.30;99.90;;;;;;4976108;28;20042;-82
2022/07/15 06:35:41;;;;;;;6.15;0.65;;;16.40;99.90;;;;;;4994545;28;20051;-81
2022/07/15 06:38:28;;;;;;;3.85;0.38;;;16.50;99.90;;;;;;4976693;28;20046;-83
2022/07/15 06:41:14;;;;;;;3.88;0.50;;;16.60;99.90;;;;;;4963219;28;20058;-83
2022/07/15 06:44:01;;;;;;;2.45;0.47;;;16.60;99.90;;;;;;4998876;28;20054;-83
2022/07/15 06:46:48;;;;;;;2.78;0.20;;;16.90;99.90;;;;;;4963652;28;20053;-82
2022/07/15 06:49:34;;;;;;;4.20;0.50;;;17.20;99.90;;;;;;4975144;28;20046;-82
2022/07/15 06:52:20;;;;;;;2.72;0.55;;;17.30;99.90;;;;;;4993117;28;20042;-83
2022/07/15 06:55:07;;;;;;;3.70;0.30;;;17.40;99.90;;;;;;4992090;28;20051;-81
2022/07/15 06:57:54;;;;;;;2.30;0.30;;;17.40;99.90;;;;;;4993238;28;20101;-84
2022/07/15 07:00:40;;;;;;;5.68;0.50;;;17.40;99.90;;;;;;4994106;28;20038;-83
2022/07/15 07:03:26;;;;;;;3.65;0.30;;;17.40;99.90;;;;;;4974027;28;20042;-82
2022/07/15 07:06:13;;;;;;;2.28;0.38;;;17.40;99.90;;;;;;4975444;28;20089;-82
2022/07/15 07:08:59;;;;;;;2.58;0.40;;;17.40;99.90;;;;;;5002778;28;20050;-82
2022/07/15 07:11:45;;;;;;;3.08;0.47;;;17.50;99.90;;;;;;4993366;28;20040;-82
2022/07/15 07:14:33;;;;;;;2.75;0.60;;;17.40;99.90;;;;;;4988110;28;20065;-82
2022/07/15 07:17:19;;;;;;;4.13;0.30;;;17.50;99.90;;;;;;4977715;28;20049;-81
2022/07/15 07:20:06;;;;;;;5.60;0.55;;;17.40;99.90;;;;;;4999883;28;20851;-82
2022/07/15 07:22:52;;;;;;;5.20;0.60;;;17.30;99.90;;;;;;4997532;28;20050;-79
2022/07/15 07:25:39;;;;;;;5.88;0.60;;;17.20;99.90;;;;;;4994470;28;20050;-82
2022/07/15 07:28:25;;;;;;;1.88;0.43;;;17.20;99.90;;;;;;4980027;28;20042;-86
2022/07/15 07:31:13;;;;;;;4.97;0.77;;;17.10;99.90;;;;;;4995716;28;20140;-85
2022/07/15 07:33:59;;;;;;;4.00;0.60;;;17.00;99.90;;;;;;5001861;28;20130;-81
2022/07/15 07:36:48;;;;;;;2.97;0.60;;;17.00;99.90;;;;;;5000244;28;20109;-81
2022/07/15 07:39:34;;;;;;;3.25;0.40;;;16.90;99.90;;;;;;4974923;28;20042;-83
2022/07/15 07:42:20;;;;;;;5.88;0.60;;;16.80;99.90;;;;;;4977487;28;20116;-78
2022/07/15 07:45:07;;;;;;;1.70;0.38;;;16.90;99.90;;;;;;4993620;28;20050;-88
2022/07/15 07:47:53;;;;;;;4.57;1.35;;;16.90;99.90;;;;;;4992941;28;20141;-89
2022/07/15 07:50:40;;;;;;;2.08;0.30;;;16.90;99.90;;;;;;4976409;28;20042;-84
2022/07/15 07:53:26;;;;;;;4.65;0.75;;;17.00;99.90;;;;;;4976668;28;20149;-78
2022/07/15 07:56:13;;;;;;;2.47;0.40;;;17.10;99.90;;;;;;4990850;28;20050;-80
2022/07/15 07:58:59;;;;;;;3.63;0.43;;;17.60;99.90;;;;;;4959944;28;20105;-79
2022/07/15 08:01:45;;;;;;;3.55;0.40;;;17.90;99.90;;;;;;4973599;28;20042;-80
2022/07/15 08:04:31;;;;;;;4.70;0.95;;;18.30;99.90;;;;;;4980540;28;20126;-81
2022/07/15 08:07:18;;;;;;;2.10;0.25;;;18.40;99.90;;;;;;4996161;28;20137;-81
2022/07/15 08:10:05;;;;;;;1.60;0.30;;;18.80;99.90;;;;;;4992916;28;20042;-84
2022/07/15 08:12:51;;;;;;;2.05;0.30;;;19.00;99.90;;;;;;4990675;28;20548;-82
2022/07/15 08:15:37;;;;;;;3.22;0.80;;;19.40;99.90;;;;;;4959894;28;20443;-82
2022/07/15 08:18:24;;;;;;;2.50;0.50;;;19.70;99.90;;;;;;4993082;28;20069;-82
2022/07/15 08:21:10;;;;;;;1.30;0.25;;;20.10;99.90;;;;;;4993856;28;20042;-83
2022/07/15 08:23:56;;;;;;;1.35;0.30;;;20.10;99.90;;;;;;4991901;28;20061;-81
2022/07/15 08:26:43;;;;;;;1.98;0.30;;;19.80;99.90;;;;;;4975174;28;20061;-78
2022/07/15 08:29:29;;;;;;;4.22;0.40;;;19.50;99.90;;;;;;4997457;28;20049;-79
2022/07/15 08:32:15;;;;;;;4.40;0.50;;;19.70;99.90;;;;;;4991175;28;20042;-77
2022/07/15 08:35:01;;;;;;;3.40;0.50;;;20.00;99.90;;;;;;4991717;28;20050;-79
2022/07/15 08:37:48;;;;;;;3.38;0.30;;;19.90;99.90;;;;;;4975052;28;20656;-79
2022/07/15 08:40:36;;;;;;;3.67;0.75;;;20.30;99.90;;;;;;4976953;28;20042;-77
2022/07/15 08:43:22;;;;;;;3.80;0.57;;;20.20;99.90;;;;;;4994434;28;20057;-80
2022/07/15 08:46:08;;;;;;;4.03;0.68;;;20.30;99.90;;;;;;4989386;28;20045;-78
2022/07/15 08:49:01;;;;;;;3.90;0.60;;;20.10;99.50;;;;;;5002007;28;20043;-76
2022/07/15 08:51:48;;;;;;;1.42;0.50;;;19.70;99.90;;;;;;4997039;28;20050;-79
2022/07/15 08:54:34;;;;;;;4.50;1.02;;;19.50;99.90;;;;;;4994502;28;20453;-78
2022/07/15 08:57:21;;;;;;;0.85;0.30;;;19.50;99.90;;;;;;4995773;28;20506;-80
2022/07/15 09:00:10;;;;;;;3.75;0.52;;;19.50;99.50;;;;;;4983703;28;20077;-83
2022/07/15 09:03:01;;;;;;;2.25;0.38;;;19.70;99.60;;;;;;4994590;28;20043;-81
2022/07/15 09:05:47;;;;;;;1.83;0.50;;;19.90;99.70;;;;;;4979083;28;20054;-79
2022/07/15 09:08:34;;;;;;;4.03;0.57;;;20.00;99.20;;;;;;5000294;28;20492;-79
2022/07/15 09:11:28;;;;;;;1.92;0.40;;;20.00;99.20;;;;;;4997212;28;20121;-77
2022/07/15 09:14:14;;;;;;;1.38;0.50;;;20.00;98.70;;;;;;4994620;28;20058;-78
2022/07/15 09:17:22;;;;;;;2.25;0.40;;;20.10;98.60;;;;;;4995128;28;20039;-78
2022/07/15 09:20:13;;;;;;;4.13;0.40;;;20.20;98.10;;;;;;4995620;28;20054;-76
2022/07/15 09:23:00;;;;;;;2.55;0.45;;;20.10;98.90;;;;;;4977688;28;20446;-76
2022/07/15 09:25:48;;;;;;;4.28;0.45;;;20.20;98.40;;;;;;4996398;28;20058;-79
2022/07/15 09:28:40;;;;;;;3.58;0.50;;;20.20;98.10;;;;;;4980845;28;20093;-79
2022/07/15 09:35:03;;;;;;;3.83;0.50;;;20.50;97.40;;;;;;4997145;28;20065;-79
2022/07/15 09:37:57;;;;;;;3.22;0.82;;;20.70;97.30;;;;;;4977209;28;20378;-79
2022/07/15 09:40:48;;;;;;;1.87;0.50;;;20.80;97.30;;;;;;4993130;28;20129;-78
2022/07/15 09:44:12;;;;;;;4.22;0.70;;;21.20;96.90;;;;;;4990542;28;20081;-77
2022/07/15 09:47:01;;;;;;;3.55;0.43;;;21.50;96.20;;;;;;4991213;28;20050;-81
2022/07/15 09:49:48;;;;;;;6.97;0.77;;;21.40;96.70;;;;;;4974201;28;20054;-79
2022/07/15 09:52:47;;;;;;;3.25;0.35;;;21.20;96.70;;;;;;4976660;28;20054;-80
2022/07/15 09:55:34;;;;;;;4.95;0.82;;;21.20;96.30;;;;;;4983122;28;20051;-85
2022/07/15 09:58:21;;;;;;;1.48;0.40;;;20.90;97.40;;;;;;4959582;28;20051;-80
2022/07/15 10:01:09;;;;;;;2.63;0.35;;;20.80;97.90;;;;;;4958088;28;20518;-81
2022/07/15 10:03:57;;;;;;;2.95;0.60;;;20.80;98.20;;;;;;4975954;28;20047;-76
2022/07/15 10:06:44;;;;;;;3.72;0.75;;;21.10;98.30;;;;;;4975774;28;20053;-77
2022/07/15 10:09:32;;;;;;;3.67;0.60;;;21.30;98.20;;;;;;4973447;28;20069;-77
2022/07/15 10:12:24;;;;;;;2.28;0.52;;;21.50;97.50;;;;;;4973381;28;20090;-79
2022/07/15 10:15:38;;;;;;;2.90;0.77;;;21.60;97.20;;;;;;4957556;28;20053;-76
2022/07/15 10:18:39;;;;;;;2.47;0.60;;;21.40;96.80;;;;;;4980957;28;20182;-79
2022/07/15 10:21:58;;;;;;;3.90;0.68;;;21.10;97.20;;;;;;4978300;28;20051;-78
2022/07/15 10:24:57;;;;;;;5.18;0.75;;;21.10;96.50;;;;;;4973907;28;20105;-79
2022/07/15 10:28:02;;;;;;;1.30;0.22;;;21.10;97.20;;;;;;4974495;28;20415;-79
2022/07/15 10:31:16;;;;;;;5.68;0.55;;;21.10;97.10;;;;;;4974102;28;20051;-78
2022/07/15 10:34:02;;;;;;;3.83;0.50;;;21.10;97.40;;;;;;4944260;28;20047;-79
2022/07/15 10:36:49;;;;;;;3.22;0.52;;;21.10;97.50;;;;;;4978048;28;20178;-78
2022/07/15 10:39:58;;;;;;;2.13;0.40;;;21.60;97.10;;;;;;4974347;28;20105;-79
2022/07/15 10:43:01;;;;;;;2.88;0.52;;;21.70;96.90;;;;;;4974441;28;20454;-77
2022/07/15 10:46:12;;;;;;;1.88;0.47;;;21.60;97.00;;;;;;4956368;28;20137;-79
2022/07/15 10:48:58;;;;;;;3.38;0.70;;;21.40;97.10;;;;;;4956789;28;20157;-79
2022/07/15 10:51:45;;;;;;;3.95;0.70;;;21.10;97.60;;;;;;4973578;28;20055;-77
2022/07/15 10:54:32;;;;;;;5.57;0.60;;;20.70;98.90;;;;;;4956002;28;20089;-77
2022/07/15 10:57:20;;;;;;;6.65;1.27;;;20.50;99.90;;;;;;4982991;28;20498;-80
2022/07/15 11:00:24;;;;;;;7.40;1.58;;;20.10;99.90;;;;;;4996707;28;20453;-80
2022/07/15 11:03:17;;;;;;;3.43;0.70;;;19.60;99.90;;;;;;4991271;28;20053;-81
2022/07/15 11:06:05;;;;;;;1.85;0.60;;;19.40;99.90;;;;;;4975348;28;20364;-85
2022/07/15 11:08:55;;;;;;;2.95;0.60;;;19.10;99.90;;;;;;4961295;28;20418;-82
2022/07/15 11:11:44;;;;;;;5.93;1.05;;;19.00;99.90;;;;;;4975579;28;20127;-81
2022/07/15 11:14:43;;;;;;;2.05;0.60;;;18.90;99.90;;;;;;4991943;28;20073;-81
2022/07/15 11:17:29;;;;;;;4.90;0.70;;;18.80;99.90;;;;;;4997450;28;20062;-81
2022/07/15 11:20:21;;;;;;;3.83;0.75;;;18.60;99.90;;;;;;4991582;28;20586;-78
2022/07/15 11:23:08;;;;;;;4.72;0.70;;;18.70;99.90;;;;;;4972426;28;20055;-81
2022/07/15 11:25:54;;;;;;;4.75;0.90;;;18.60;99.90;;;;;;4974751;28;20043;-79
2022/07/15 11:28:55;;;;;;;4.63;1.00;;;18.70;99.90;;;;;;4992262;28;20054;-80
2022/07/15 11:31:43;;;;;;;4.88;0.60;;;18.90;99.90;;;;;;4993677;28;20069;-82
2022/07/15 11:34:52;;;;;;;2.85;0.60;;;19.30;99.90;;;;;;4987660;28;20073;-82
2022/07/15 11:37:38;;;;;;;5.57;0.57;;;19.70;99.90;;;;;;4999343;28;20072;-87
2022/07/15 11:46:43;;;;;;;3.15;0.50;;;21.30;99.90;;;;;;4992715;28;20046;-78
2022/07/15 11:49:31;;;;;;;7.75;0.77;;;21.80;99.60;;;;;;4992542;28;20057;-73
2022/07/15 11:52:25;;;;;;;2.35;0.85;;;22.20;98.90;;;;;;4979811;28;20098;-91
2022/07/15 11:55:11;;;;;;;3.83;0.60;;;22.60;98.50;;;;;;4980003;28;20050;-83
2022/07/15 11:57:57;;;;;;;2.13;0.43;;;22.70;96.90;;;;;;4988973;28;20477;-84
2022/07/15 12:00:48;;;;;;;1.35;0.40;;;22.30;96.90;;;;;;4989328;28;20129;-78
2022/07/15 12:03:41;;;;;;;6.35;0.73;;;21.70;97.30;;;;;;4990221;28;20042;-84
2022/07/15 12:06:32;;;;;;;2.20;0.50;;;21.20;99.00;;;;;;4977098;28;20061;-82
2022/07/15 12:09:18;;;;;;;3.47;0.52;;;20.80;99.90;;;;;;4994997;28;20058;-83
2022/07/15 12:12:05;;;;;;;3.38;0.60;;;20.60;99.90;;;;;;4996672;28;20049;-78
2022/07/15 12:14:51;;;;;;;2.92;0.82;;;20.40;99.90;;;;;;5004077;28;20049;-79
2022/07/15 12:17:39;;;;;;;2.47;0.60;;;20.10;99.90;;;;;;5007780;28;20050;-81
2022/07/15 12:20:26;;;;;;;7.00;0.75;;;19.90;99.90;;;;;;4999193;28;20109;-88
2022/07/15 12:23:12;;;;;;;2.70;0.57;;;19.70;99.90;;;;;;4997486;28;20498;-81
2022/07/15 12:26:10;;;;;;;2.08;0.70;;;19.60;99.90;;;;;;4997256;28;20449;-81
2022/07/15 12:28:58;;;;;;;6.38;0.70;;;19.30;99.90;;;;;;5007196;28;20054;-83
2022/07/15 12:31:55;;;;;;;3.58;0.90;;;19.20;99.90;;;;;;4979943;28;20046;-82
2022/07/15 12:34:52;;;;;;;4.72;1.17;;;19.20;99.90;;;;;;4981569;28;20089;-85
2022/07/15 12:37:41;;;;;;;2.80;0.88;;;19.20;99.90;;;;;;5002703;28;20054;-83
2022/07/15 12:40:27;;;;;;;2.35;0.50;;;19.30;99.90;;;;;;4997458;28;20042;-90
2022/07/15 12:43:13;;;;;;;4.43;0.77;;;19.40;99.90;;;;;;4999738;28;20050;-89
2022/07/15 12:46:01;;;;;;;2.42;0.60;;;19.50;99.90;;;;;;4982966;28;20181;-83
2022/07/15 12:48:49;;;;;;;4.90;0.73;;;19.60;99.90;;;;;;4997786;28;20130;-85
2022/07/15 12:51:35;;;;;;;3.47;0.80;;;20.00;99.90;;;;;;5002548;28;20560;-91
2022/07/15 12:54:22;;;;;;;4.65;0.82;;;20.10;99.90;;;;;;4977950;28;20051;-85
2022/07/15 12:57:33;;;;;;;3.67;0.90;;;20.40;99.90;;;;;;4998944;28;20042;-91
2022/07/15 13:00:22;;;;;;;2.08;0.60;;;20.70;99.90;;;;;;4999968;28;20071;-85
2022/07/15 13:03:20;;;;;;;2.10;0.52;;;21.20;99.90;;;;;;5004614;28;20077;-85
2022/07/15 13:06:07;;;;;;;4.00;0.82;;;21.70;99.30;;;;;;4998123;28;20038;-84
2022/07/15 13:08:53;;;;;;;4.43;0.68;;;21.60;98.80;;;;;;4979665;28;20058;-84
2022/07/15 13:11:39;;;;;;;2.90;0.60;;;22.10;98.80;;;;;;4997751;28;20058;-83
2022/07/15 13:14:25;;;;;;;1.20;0.43;;;22.40;97.60;;;;;;4997715;28;20054;-84
2022/07/15 13:17:12;;;;;;;4.38;0.65;;;22.70;97.30;;;;;;4974444;28;20072;-84
2022/07/15 13:19:58;;;;;;;3.30;0.80;;;22.70;96.50;;;;;;4967561;28;20136;-88
2022/07/15 13:22:45;;;;;;;3.50;0.93;;;22.50;96.70;;;;;;4995628;28;20057;-83
2022/07/15 13:25:32;;;;;;;2.90;0.70;;;22.00;97.30;;;;;;5001668;28;20051;-83
2022/07/15 13:28:18;;;;;;;3.70;1.00;;;21.60;98.20;;;;;;4999028;28;20050;-87
2022/07/15 13:31:05;;;;;;;5.32;0.80;;;21.60;98.70;;;;;;4974885;28;20046;-86
2022/07/15 13:33:51;;;;;;;6.22;0.90;;;21.50;99.50;;;;;;4959469;28;20073;-88
2022/07/15 13:36:37;;;;;;;2.65;1.00;;;21.80;98.90;;;;;;4964657;28;20055;-92
2022/07/15 13:39:23;;;;;;;4.88;0.75;;;22.00;98.40;;;;;;4979772;28;20538;-88
2022/07/15 13:42:09;;;;;;;5.57;1.00;;;22.00;98.20;;;;;;4976594;28;20117;-88
2022/07/15 13:44:59;;;;;;;4.80;0.98;;;22.00;98.60;;;;;;4979675;28;20046;-93
2022/07/15 13:47:45;;;;;;;3.78;0.73;;;22.30;98.10;;;;;;4980962;28;20051;-86
2022/07/15 13:53:36;;;;;;;4.20;0.97;;;22.10;97.80;;;;;;4960215;28;20086;-84
2022/07/15 13:56:22;;;;;;;3.83;0.82;;;21.90;97.80;;;;;;4979243;28;20054;-83
2022/07/15 13:59:09;;;;;;;7.05;0.90;;;21.90;97.70;;;;;;4976844;28;20046;-82
2022/07/15 14:01:55;;;;;;;3.97;0.80;;;22.10;97.80;;;;;;4975503;28;20047;-84
2022/07/15 14:04:41;;;;;;;2.63;0.63;;;22.50;97.30;;;;;;4974352;28;20094;-86
2022/07/15 14:07:27;;;;;;;4.57;0.80;;;22.70;96.80;;;;;;4959984;28;20110;-80
2022/07/15 14:10:14;;;;;;;3.22;0.73;;;23.50;96.50;;;;;;4966765;28;20055;-85
2022/07/15 14:13:00;;;;;;;4.00;0.80;;;24.10;95.10;;;;;;4968786;28;20050;-86
2022/07/15 14:15:47;;;;;;;3.13;0.60;;;24.40;94.90;;;;;;4976252;28;20061;-86
2022/07/15 14:18:43;;;;;;;1.45;0.55;;;24.00;94.80;;;;;;4975934;28;20047;-86
2022/07/15 14:21:29;;;;;;;3.53;0.80;;;23.80;95.10;;;;;;4996002;28;20050;-84
2022/07/15 14:24:15;;;;;;;3.72;0.90;;;23.70;95.20;;;;;;4995124;28;20047;-84
2022/07/15 14:27:01;;;;;;;2.95;0.77;;;23.50;95.00;;;;;;4995391;28;20498;-85
2022/07/15 14:29:48;;;;;;;4.85;0.90;;;23.30;95.50;;;;;;4977656;28;20057;-83
2022/07/15 14:32:34;;;;;;;3.65;0.85;;;23.10;96.40;;;;;;4978254;28;20050;-85
2022/07/15 14:35:21;;;;;;;3.05;0.80;;;22.90;96.60;;;;;;4999945;28;20112;-82
2022/07/15 14:38:07;;;;;;;7.03;0.82;;;22.80;96.40;;;;;;4978907;28;20132;-82
2022/07/15 14:40:53;;;;;;;4.75;0.80;;;22.70;96.60;;;;;;4994666;28;20054;-83
2022/07/15 14:43:40;;;;;;;5.38;0.90;;;22.50;96.90;;;;;;4977372;28;20093;-82
2022/07/15 14:46:29;;;;;;;5.50;0.98;;;22.50;96.80;;;;;;4995577;28;20086;-83
2022/07/15 14:49:15;;;;;;;5.97;1.17;;;22.50;96.90;;;;;;5000455;28;20046;-82
2022/07/15 14:52:02;;;;;;;3.60;0.75;;;22.20;96.60;;;;;;5006580;28;20053;-80